Time;durP1;ratioP1;P1;durP2;ratioP2;P2;SDS_P1;SDS_P2;PMS_P1;PMS_P2;Temp;Humidity;BMP_temperature;BMP_pressure;BME280_temperature;BME280_humidity;BME280_pressure;Samples;Min_cycle;Max_cycle;Signal;HPM_P1;HPM_P2
2021/05/14 00:01:25;;;;;;;2.45;1.38;;;;;;;;;;4993342;28;20026;-59
2021/05/14 00:03:52;;;;;;;2.08;1.40;;;;;;;;;;4991804;28;20025;-59
2021/05/14 00:06:19;;;;;;;2.85;1.77;;;;;;;;;;4993094;28;20069;-59
2021/05/14 00:08:45;;;;;;;2.97;2.08;;;;;;;;;;4991475;28;20366;-58
2021/05/14 00:11:11;;;;;;;3.95;1.65;;;;;;;;;;4992173;28;20450;-59
2021/05/14 00:13:37;;;;;;;3.22;2.10;;;;;;;;;;4991674;28;20061;-58
2021/05/14 00:16:04;;;;;;;3.88;2.13;;;;;;;;;;4991591;28;20410;-58
2021/05/14 00:18:30;;;;;;;3.35;2.15;;;;;;;;;;4992763;28;20053;-58
2021/05/14 00:20:56;;;;;;;2.22;1.77;;;;;;;;;;4993309;28;20629;-58
2021/05/14 00:23:23;;;;;;;3.97;2.30;;;;;;;;;;4992489;28;20038;-59
2021/05/14 00:25:49;;;;;;;3.72;2.15;;;;;;;;;;4992355;28;20478;-59
2021/05/14 00:28:16;;;;;;;3.20;2.40;;;;;;;;;;4992943;28;20493;-58
2021/05/14 00:30:42;;;;;;;3.15;2.20;;;;;;;;;;4979899;28;20109;-58
2021/05/14 00:33:08;;;;;;;3.90;2.13;;;;;;;;;;4985821;28;20031;-58
2021/05/14 00:35:35;;;;;;;4.25;2.20;;;;;;;;;;5006534;28;20061;-58
2021/05/14 00:38:01;;;;;;;3.70;3.15;;;;;;;;;;4992619;28;20022;-59
2021/05/14 00:40:27;;;;;;;3.53;2.75;;;;;;;;;;4990500;28;20026;-58
2021/05/14 00:42:53;;;;;;;4.93;3.47;;;;;;;;;;4993150;28;20080;-59
2021/05/14 00:45:19;;;;;;;4.53;4.00;;;;;;;;;;4992459;28;20062;-59
2021/05/14 00:47:45;;;;;;;7.15;4.80;;;;;;;;;;4992591;28;20030;-59
2021/05/14 00:50:12;;;;;;;6.68;5.00;;;;;;;;;;4992403;28;20031;-58
2021/05/14 00:52:38;;;;;;;5.57;4.25;;;;;;;;;;4988470;28;20026;-58
2021/05/14 00:55:05;;;;;;;4.93;4.00;;;;;;;;;;4989331;28;20552;-59
2021/05/14 00:57:32;;;;;;;9.57;4.40;;;;;;;;;;4989589;28;20134;-59
2021/05/14 00:59:58;;;;;;;4.97;4.10;;;;;;;;;;4992867;28;20027;-59
2021/05/14 01:02:24;;;;;;;5.65;5.05;;;;;;;;;;4990800;28;20022;-59
2021/05/14 01:04:51;;;;;;;7.50;5.28;;;;;;;;;;4990848;28;20105;-58
2021/05/14 01:07:17;;;;;;;6.78;5.45;;;;;;;;;;4991823;28;20033;-58
2021/05/14 01:09:43;;;;;;;5.70;5.07;;;;;;;;;;4992522;28;20065;-58
2021/05/14 01:12:11;;;;;;;5.97;5.10;;;;;;;;;;4990990;28;20023;-58
2021/05/14 01:14:37;;;;;;;5.32;4.70;;;;;;;;;;4991539;28;20060;-58
2021/05/14 01:17:04;;;;;;;6.13;5.53;;;;;;;;;;4987087;28;20173;-59
2021/05/14 01:19:30;;;;;;;7.90;5.50;;;;;;;;;;4990540;28;20045;-59
2021/05/14 01:21:57;;;;;;;8.48;7.32;;;;;;;;;;4992031;28;20030;-58
2021/05/14 01:24:23;;;;;;;6.45;5.65;;;;;;;;;;4991160;28;20026;-58
2021/05/14 01:26:50;;;;;;;8.85;6.95;;;;;;;;;;4996274;28;20038;-59
2021/05/14 01:29:16;;;;;;;6.82;6.13;;;;;;;;;;4996759;28;20029;-59
2021/05/14 01:31:42;;;;;;;7.75;7.03;;;;;;;;;;4996199;28;20023;-59
2021/05/14 01:34:08;;;;;;;9.15;7.32;;;;;;;;;;4995811;28;20036;-58
2021/05/14 01:36:39;;;;;;;7.72;6.53;;;;;;;;;;4996688;28;20026;-59
2021/05/14 01:39:12;;;;;;;8.70;7.18;;;;;;;;;;4994828;28;20050;-59
2021/05/14 01:41:39;;;;;;;7.75;6.68;;;;;;;;;;4994605;28;20519;-59
2021/05/14 01:44:05;;;;;;;7.68;6.28;;;;;;;;;;4991119;28;20030;-58
2021/05/14 01:46:32;;;;;;;7.38;6.22;;;;;;;;;;4993913;28;20046;-59
2021/05/14 01:48:58;;;;;;;8.52;7.10;;;;;;;;;;4996125;28;20041;-59
2021/05/14 01:51:24;;;;;;;7.07;6.10;;;;;;;;;;4995406;28;20034;-58
2021/05/14 01:53:51;;;;;;;8.88;7.45;;;;;;;;;;4994599;28;20033;-59
2021/05/14 01:56:18;;;;;;;7.50;6.80;;;;;;;;;;4994089;28;20112;-59
2021/05/14 01:58:45;;;;;;;7.85;6.90;;;;;;;;;;4983895;28;20123;-58
2021/05/14 02:01:11;;;;;;;8.45;7.55;;;;;;;;;;4995791;28;20027;-59
2021/05/14 02:03:38;;;;;;;8.23;7.05;;;;;;;;;;4995248;28;20450;-58
2021/05/14 02:06:04;;;;;;;8.50;7.07;;;;;;;;;;4994733;28;20022;-58
2021/05/14 02:08:31;;;;;;;9.50;6.88;;;;;;;;;;4973641;28;20026;-59
2021/05/14 02:10:57;;;;;;;8.45;7.55;;;;;;;;;;4993718;28;20660;-58
2021/05/14 02:13:24;;;;;;;8.93;7.75;;;;;;;;;;4994461;28;20058;-58
2021/05/14 02:15:50;;;;;;;7.97;6.93;;;;;;;;;;4993890;28;20121;-58
2021/05/14 02:18:16;;;;;;;9.35;7.60;;;;;;;;;;4993714;28;20048;-58
2021/05/14 02:20:43;;;;;;;8.57;7.47;;;;;;;;;;4993846;28;20022;-58
2021/05/14 02:23:09;;;;;;;10.70;7.70;;;;;;;;;;4989626;28;20030;-58
2021/05/14 02:25:35;;;;;;;8.00;7.20;;;;;;;;;;4993591;28;20485;-58
2021/05/14 02:28:02;;;;;;;8.90;8.00;;;;;;;;;;4995431;28;20387;-59
2021/05/14 02:30:28;;;;;;;10.13;8.18;;;;;;;;;;4993297;28;20125;-60
2021/05/14 02:32:54;;;;;;;11.00;8.57;;;;;;;;;;4985950;28;20030;-59
2021/05/14 02:35:21;;;;;;;10.50;8.73;;;;;;;;;;5001828;28;20023;-59
2021/05/14 02:37:48;;;;;;;9.98;8.90;;;;;;;;;;4994136;28;20030;-58
2021/05/14 02:40:14;;;;;;;9.30;8.07;;;;;;;;;;4995574;28;20519;-58
2021/05/14 02:42:40;;;;;;;8.82;7.47;;;;;;;;;;4992360;28;20089;-58
2021/05/14 02:45:07;;;;;;;9.52;7.93;;;;;;;;;;4987144;28;20026;-58
2021/05/14 02:47:37;;;;;;;11.40;9.57;;;;;;;;;;4992942;28;20080;-58
2021/05/14 02:50:04;;;;;;;11.10;9.10;;;;;;;;;;4993880;28;20069;-57
2021/05/14 02:52:31;;;;;;;9.88;8.25;;;;;;;;;;5004089;28;20080;-57
2021/05/14 02:54:57;;;;;;;8.65;7.55;;;;;;;;;;4985899;28;20470;-58
2021/05/14 02:57:23;;;;;;;10.07;8.75;;;;;;;;;;4992875;28;20116;-58
2021/05/14 02:59:50;;;;;;;9.80;8.77;;;;;;;;;;4995172;28;20022;-57
2021/05/14 03:02:16;;;;;;;9.00;7.78;;;;;;;;;;4992981;28;20026;-58
2021/05/14 03:04:42;;;;;;;9.30;8.13;;;;;;;;;;4994614;28;20081;-57
2021/05/14 03:07:08;;;;;;;8.68;7.88;;;;;;;;;;4993675;28;20416;-59
2021/05/14 03:09:34;;;;;;;8.50;7.63;;;;;;;;;;4994885;28;20030;-59
2021/05/14 03:12:00;;;;;;;8.07;7.18;;;;;;;;;;4995067;28;20018;-59
2021/05/14 03:14:27;;;;;;;8.25;7.43;;;;;;;;;;4982732;28;20074;-59
2021/05/14 03:16:53;;;;;;;10.75;9.32;;;;;;;;;;4994747;28;20066;-59
2021/05/14 03:19:19;;;;;;;10.65;8.43;;;;;;;;;;4994607;28;20343;-59
2021/05/14 03:21:45;;;;;;;9.88;8.35;;;;;;;;;;4994476;28;20482;-59
2021/05/14 03:24:11;;;;;;;9.77;8.60;;;;;;;;;;4993204;28;20449;-59
2021/05/14 03:26:38;;;;;;;17.15;10.88;;;;;;;;;;4993199;28;20129;-59
2021/05/14 03:29:04;;;;;;;12.52;9.98;;;;;;;;;;4985747;28;20023;-59
2021/05/14 03:31:30;;;;;;;11.82;10.52;;;;;;;;;;4985322;28;20060;-59
2021/05/14 03:33:56;;;;;;;11.18;9.88;;;;;;;;;;4994109;28;20143;-59
2021/05/14 03:36:23;;;;;;;10.60;9.50;;;;;;;;;;4993947;28;20030;-59
2021/05/14 03:38:49;;;;;;;11.57;8.57;;;;;;;;;;4991850;28;20031;-59
2021/05/14 03:41:44;;;;;;;10.93;9.65;;;;;;;;;;4994128;28;20023;-59
2021/05/14 03:44:04;;;;;;;10.55;9.38;;;;;;;;;;4990125;28;20042;-59
2021/05/14 03:46:31;;;;;;;11.45;10.13;;;;;;;;;;4974463;28;20042;-60
2021/05/14 03:48:57;;;;;;;10.45;9.15;;;;;;;;;;4987916;28;20116;-59
2021/05/14 03:51:23;;;;;;;10.10;8.95;;;;;;;;;;4974759;28;20027;-59
2021/05/14 03:53:49;;;;;;;10.60;9.10;;;;;;;;;;4974667;28;20022;-58
2021/05/14 03:56:16;;;;;;;12.77;9.05;;;;;;;;;;4988272;28;20081;-57
2021/05/14 03:58:42;;;;;;;10.48;9.32;;;;;;;;;;4994076;28;20026;-58
2021/05/14 04:01:08;;;;;;;11.48;10.27;;;;;;;;;;4991827;28;20037;-58
2021/05/14 04:03:34;;;;;;;11.93;10.38;;;;;;;;;;4993354;28;20030;-58
2021/05/14 04:06:00;;;;;;;10.50;9.40;;;;;;;;;;4993404;28;20022;-58
2021/05/14 04:08:27;;;;;;;12.23;10.05;;;;;;;;;;4991871;28;20458;-58
2021/05/14 04:16:22;;;;;;;13.73;10.10;;;;;;;;;;4976844;28;20049;-58
2021/05/14 04:18:48;;;;;;;11.70;9.38;;;;;;;;;;5003349;28;20106;-58
2021/05/14 04:21:14;;;;;;;11.02;9.68;;;;;;;;;;4993857;28;20129;-58
2021/05/14 04:23:40;;;;;;;11.45;9.77;;;;;;;;;;4992039;28;20026;-59
2021/05/14 04:26:07;;;;;;;13.30;10.50;;;;;;;;;;4993370;28;20034;-58
2021/05/14 04:28:33;;;;;;;13.38;10.23;;;;;;;;;;4992866;28;20025;-57
2021/05/14 04:30:59;;;;;;;14.35;11.40;;;;;;;;;;4993386;28;20061;-58
2021/05/14 04:33:25;;;;;;;11.88;10.07;;;;;;;;;;4992985;28;20079;-58
2021/05/14 04:35:52;;;;;;;12.80;10.23;;;;;;;;;;4992758;28;20393;-58
2021/05/14 04:38:18;;;;;;;13.68;11.00;;;;;;;;;;4993063;28;20030;-57
2021/05/14 04:40:44;;;;;;;13.80;11.13;;;;;;;;;;4993092;28;20018;-59
2021/05/14 04:43:11;;;;;;;11.35;10.10;;;;;;;;;;4992842;28;20375;-58
2021/05/14 04:45:37;;;;;;;13.35;11.02;;;;;;;;;;4991984;28;20416;-59
2021/05/14 04:48:05;;;;;;;13.95;11.23;;;;;;;;;;4992856;28;20033;-58
2021/05/14 04:50:32;;;;;;;16.10;10.93;;;;;;;;;;4993108;28;20051;-58
2021/05/14 04:53:02;;;;;;;15.82;12.88;;;;;;;;;;4991962;28;20462;-58
2021/05/14 04:55:29;;;;;;;15.25;12.52;;;;;;;;;;5005246;28;20038;-58
2021/05/14 04:57:55;;;;;;;15.77;13.02;;;;;;;;;;4992340;28;20149;-59
2021/05/14 05:00:21;;;;;;;16.27;11.15;;;;;;;;;;4991560;28;20173;-59
2021/05/14 05:02:47;;;;;;;15.95;12.65;;;;;;;;;;4991141;28;20022;-59
2021/05/14 05:05:14;;;;;;;15.35;12.10;;;;;;;;;;4989726;28;20030;-58
2021/05/14 05:07:40;;;;;;;15.68;12.48;;;;;;;;;;4985855;28;20105;-59
2021/05/14 05:10:06;;;;;;;15.10;12.15;;;;;;;;;;4992873;28;20030;-59
2021/05/14 05:12:32;;;;;;;13.93;11.52;;;;;;;;;;4991207;28;20134;-58
2021/05/14 05:14:59;;;;;;;15.57;11.38;;;;;;;;;;4992639;28;20474;-58
2021/05/14 05:17:25;;;;;;;15.88;11.00;;;;;;;;;;4990535;28;20098;-58
2021/05/14 05:19:52;;;;;;;13.02;10.55;;;;;;;;;;4990737;28;20026;-58
2021/05/14 05:22:18;;;;;;;12.90;10.23;;;;;;;;;;4987662;28;20062;-58
2021/05/14 05:24:44;;;;;;;12.15;10.20;;;;;;;;;;4973960;28;20027;-58
2021/05/14 05:27:10;;;;;;;16.50;10.88;;;;;;;;;;4992305;28;20050;-57
2021/05/14 05:29:37;;;;;;;14.20;10.98;;;;;;;;;;4991151;28;20374;-57
2021/05/14 05:32:03;;;;;;;11.15;9.93;;;;;;;;;;4992017;28;20116;-58
2021/05/14 05:34:29;;;;;;;13.57;10.77;;;;;;;;;;4992191;28;20034;-59
2021/05/14 05:36:56;;;;;;;13.88;11.48;;;;;;;;;;4991628;28;20018;-58
2021/05/14 05:39:23;;;;;;;16.05;11.50;;;;;;;;;;4992146;28;20124;-59
2021/05/14 05:41:49;;;;;;;12.15;10.88;;;;;;;;;;4990995;28;20058;-59
2021/05/14 05:44:16;;;;;;;16.13;12.10;;;;;;;;;;4991167;28;20489;-59
2021/05/14 05:46:42;;;;;;;14.93;11.98;;;;;;;;;;4992446;28;20106;-59
2021/05/14 05:49:08;;;;;;;14.55;12.73;;;;;;;;;;4992270;28;20034;-59
2021/05/14 05:51:34;;;;;;;15.68;13.52;;;;;;;;;;4990894;28;20449;-57
2021/05/14 05:54:01;;;;;;;16.77;12.55;;;;;;;;;;4991933;28;20418;-58
2021/05/14 05:56:27;;;;;;;18.30;14.02;;;;;;;;;;4992366;28;20069;-58
2021/05/14 05:58:54;;;;;;;14.93;12.45;;;;;;;;;;4991834;28;20532;-58
2021/05/14 06:01:20;;;;;;;17.15;12.68;;;;;;;;;;4991729;28;20069;-60
2021/05/14 06:03:48;;;;;;;16.95;12.50;;;;;;;;;;4991926;28;20357;-58
2021/05/14 06:06:14;;;;;;;15.00;13.15;;;;;;;;;;4992255;28;20096;-57
2021/05/14 06:08:41;;;;;;;18.88;14.07;;;;;;;;;;4991565;28;20015;-59
2021/05/14 06:11:07;;;;;;;16.27;12.43;;;;;;;;;;4992986;28;20022;-59
2021/05/14 06:13:34;;;;;;;19.08;13.90;;;;;;;;;;4995184;28;20113;-59
2021/05/14 06:16:02;;;;;;;17.65;13.70;;;;;;;;;;4989908;28;20044;-58
2021/05/14 06:18:35;;;;;;;16.88;12.65;;;;;;;;;;4993955;28;20474;-59
2021/05/14 06:21:01;;;;;;;15.25;12.15;;;;;;;;;;4995177;28;20034;-59
2021/05/14 06:23:27;;;;;;;14.35;12.75;;;;;;;;;;4995216;28;20019;-59
2021/05/14 06:25:54;;;;;;;15.10;11.43;;;;;;;;;;4983541;28;20040;-59
2021/05/14 06:28:21;;;;;;;14.18;11.15;;;;;;;;;;4995367;28;20026;-60
2021/05/14 06:30:48;;;;;;;14.07;10.52;;;;;;;;;;4994950;28;20030;-59
2021/05/14 06:33:14;;;;;;;14.30;11.15;;;;;;;;;;4995037;28;20030;-59
2021/05/14 06:35:41;;;;;;;13.25;9.85;;;;;;;;;;4995716;28;20414;-59
2021/05/14 06:38:07;;;;;;;12.38;10.40;;;;;;;;;;4995400;28;20112;-60
2021/05/14 06:40:34;;;;;;;12.07;10.18;;;;;;;;;;4994688;28;20322;-60
2021/05/14 06:43:00;;;;;;;11.05;9.45;;;;;;;;;;4993154;28;20050;-59
2021/05/14 06:45:27;;;;;;;13.68;10.40;;;;;;;;;;4994311;28;20022;-58
2021/05/14 06:47:53;;;;;;;13.68;10.05;;;;;;;;;;4989670;28;20110;-58
2021/05/14 06:50:19;;;;;;;14.93;10.60;;;;;;;;;;4993012;28;20027;-59
2021/05/14 06:52:45;;;;;;;13.07;9.80;;;;;;;;;;4995070;28;20089;-58
2021/05/14 06:55:12;;;;;;;13.00;9.57;;;;;;;;;;4994273;28;20022;-59
2021/05/14 06:57:38;;;;;;;11.45;8.93;;;;;;;;;;4994267;28;20030;-59
2021/05/14 07:00:05;;;;;;;11.75;9.90;;;;;;;;;;4993247;28;20316;-58
2021/05/14 07:02:32;;;;;;;10.32;9.13;;;;;;;;;;4994775;28;20046;-59
2021/05/14 07:04:59;;;;;;;11.25;9.90;;;;;;;;;;4994872;28;20045;-58
2021/05/14 07:07:25;;;;;;;12.40;9.52;;;;;;;;;;4994778;28;20028;-60
2021/05/14 07:09:51;;;;;;;14.07;9.23;;;;;;;;;;4987744;28;20497;-59
2021/05/14 07:12:17;;;;;;;12.98;8.93;;;;;;;;;;4987342;28;20022;-59
2021/05/14 07:14:43;;;;;;;13.07;8.45;;;;;;;;;;5007199;28;20025;-59
2021/05/14 07:17:10;;;;;;;11.27;7.70;;;;;;;;;;4994623;28;20497;-60
2021/05/14 07:19:36;;;;;;;12.20;8.18;;;;;;;;;;4994453;28;20516;-59
2021/05/14 07:22:04;;;;;;;12.90;7.95;;;;;;;;;;4985936;28;20080;-59
2021/05/14 07:24:32;;;;;;;12.82;7.90;;;;;;;;;;4994450;28;20168;-59
2021/05/14 07:26:58;;;;;;;10.57;6.97;;;;;;;;;;4992935;28;20041;-58
2021/05/14 07:29:24;;;;;;;9.55;6.47;;;;;;;;;;4993018;28;20362;-59
2021/05/14 07:31:50;;;;;;;11.07;6.30;;;;;;;;;;4993763;28;20124;-58
2021/05/14 07:34:16;;;;;;;8.48;5.88;;;;;;;;;;4994352;28;20030;-58
2021/05/14 07:36:43;;;;;;;11.15;6.85;;;;;;;;;;4988002;28;20029;-58
2021/05/14 07:39:09;;;;;;;11.82;7.13;;;;;;;;;;4992821;28;20093;-58
2021/05/14 07:41:35;;;;;;;11.27;6.78;;;;;;;;;;4988176;28;20031;-59
2021/05/14 07:44:02;;;;;;;11.90;6.97;;;;;;;;;;4986921;28;20026;-58
2021/05/14 07:46:28;;;;;;;11.02;6.43;;;;;;;;;;4981175;28;20062;-58
2021/05/14 07:48:54;;;;;;;8.60;5.95;;;;;;;;;;4988637;28;20455;-59
2021/05/14 07:51:20;;;;;;;10.73;5.82;;;;;;;;;;4967662;28;20701;-59
2021/05/14 07:53:46;;;;;;;10.52;5.68;;;;;;;;;;4986482;28;20027;-58
2021/05/14 07:56:12;;;;;;;7.75;5.38;;;;;;;;;;4984569;28;20121;-59
2021/05/14 07:58:39;;;;;;;9.50;5.80;;;;;;;;;;4970291;28;20517;-59
2021/05/14 08:01:05;;;;;;;9.73;6.82;;;;;;;;;;4989551;28;20053;-59
2021/05/14 08:03:31;;;;;;;10.23;6.07;;;;;;;;;;4997972;28;20030;-60
2021/05/14 08:05:57;;;;;;;7.15;5.97;;;;;;;;;;4984460;28;20564;-58
2021/05/14 08:08:24;;;;;;;12.90;5.80;;;;;;;;;;4981018;28;20094;-57
2021/05/14 08:10:54;;;;;;;8.88;5.53;;;;;;;;;;4993336;28;20025;-57
2021/05/14 08:13:20;;;;;;;8.55;5.40;;;;;;;;;;4976033;28;20092;-57
2021/05/14 08:15:46;;;;;;;10.85;5.90;;;;;;;;;;4987209;28;20030;-58
2021/05/14 08:18:13;;;;;;;10.13;5.90;;;;;;;;;;4983854;28;20053;-58
2021/05/14 08:20:41;;;;;;;7.63;5.15;;;;;;;;;;4981973;28;20043;-58
2021/05/14 08:23:08;;;;;;;12.85;5.88;;;;;;;;;;4976713;28;20033;-59
2021/05/14 08:25:37;;;;;;;9.70;5.65;;;;;;;;;;4988620;28;20026;-56
2021/05/14 08:28:04;;;;;;;9.20;5.43;;;;;;;;;;5005195;28;20124;-57
2021/05/14 08:30:30;;;;;;;9.07;6.32;;;;;;;;;;4989315;28;20045;-58
2021/05/14 08:32:56;;;;;;;7.95;5.32;;;;;;;;;;4981271;28;20030;-58
2021/05/14 08:35:23;;;;;;;9.00;5.53;;;;;;;;;;5001000;28;20049;-58
2021/05/14 08:37:49;;;;;;;10.68;5.78;;;;;;;;;;4984580;28;20498;-57
2021/05/14 08:40:16;;;;;;;10.00;5.35;;;;;;;;;;4988370;28;21199;-57
2021/05/14 08:42:43;;;;;;;9.18;5.30;;;;;;;;;;4979287;28;20043;-58
2021/05/14 08:45:12;;;;;;;9.65;5.45;;;;;;;;;;4985641;28;20041;-58
2021/05/14 08:47:38;;;;;;;11.63;5.07;;;;;;;;;;4985109;28;20354;-57
2021/05/14 08:50:05;;;;;;;11.05;5.50;;;;;;;;;;4979685;28;20038;-61
2021/05/14 08:52:34;;;;;;;8.27;4.20;;;;;;;;;;4991771;28;20026;-58
2021/05/14 08:55:01;;;;;;;7.22;4.03;;;;;;;;;;4987327;28;20093;-58
2021/05/14 08:57:27;;;;;;;6.97;4.05;;;;;;;;;;4987338;28;20026;-58
2021/05/14 08:59:54;;;;;;;8.35;4.70;;;;;;;;;;4985436;28;20034;-59
2021/05/14 09:02:20;;;;;;;6.55;3.85;;;;;;;;;;4986123;28;20431;-58
2021/05/14 09:04:47;;;;;;;8.57;3.60;;;;;;;;;;4989967;28;20023;-58
2021/05/14 09:07:15;;;;;;;6.68;3.42;;;;;;;;;;4990054;28;20323;-57
2021/05/14 09:09:42;;;;;;;8.30;3.67;;;;;;;;;;4983734;28;20033;-58
2021/05/14 09:12:08;;;;;;;7.30;4.22;;;;;;;;;;4983840;28;20030;-58
2021/05/14 09:14:34;;;;;;;7.13;4.40;;;;;;;;;;4988309;28;20115;-57
2021/05/14 09:17:10;;;;;;;6.85;3.72;;;;;;;;;;4986149;28;20018;-57
2021/05/14 09:19:38;;;;;;;11.48;4.32;;;;;;;;;;4986335;28;20038;-58
2021/05/14 09:22:10;;;;;;;7.85;4.00;;;;;;;;;;4998857;28;20036;-58
2021/05/14 09:24:36;;;;;;;6.78;3.67;;;;;;;;;;4983810;28;20037;-57
2021/05/14 09:27:32;;;;;;;6.28;3.55;;;;;;;;;;4990350;28;20486;-57
2021/05/14 09:29:59;;;;;;;9.48;3.95;;;;;;;;;;4909018;29;20040;-57
2021/05/14 09:32:33;;;;;;;6.20;3.60;;;;;;;;;;4908769;29;20032;-58
2021/05/14 09:35:00;;;;;;;7.68;4.05;;;;;;;;;;4911883;29;20044;-57
2021/05/14 09:37:27;;;;;;;8.80;3.80;;;;;;;;;;4912381;29;20096;-58
2021/05/14 09:40:12;;;;;;;9.40;3.85;;;;;;;;;;4911531;29;20519;-59
2021/05/14 09:42:39;;;;;;;6.63;3.85;;;;;;;;;;4910703;29;20103;-58
2021/05/14 09:45:15;;;;;;;9.63;3.63;;;;;;;;;;4895708;29;20043;-57
2021/05/14 09:47:41;;;;;;;9.85;4.50;;;;;;;;;;4915664;29;20044;-59
2021/05/14 09:50:25;;;;;;;8.30;3.90;;;;;;;;;;4915319;29;20601;-58
2021/05/14 09:53:01;;;;;;;9.13;3.55;;;;;;;;;;4916301;29;20036;-58
2021/05/14 09:55:27;;;;;;;11.82;4.35;;;;;;;;;;4915505;29;20436;-58
2021/05/14 09:58:01;;;;;;;7.13;3.95;;;;;;;;;;4916299;29;20054;-59
2021/05/14 10:00:28;;;;;;;8.45;3.83;;;;;;;;;;4906739;29;20040;-59
2021/05/14 10:02:55;;;;;;;7.60;3.80;;;;;;;;;;4914009;29;20112;-58
2021/05/14 10:05:21;;;;;;;8.57;3.45;;;;;;;;;;4920334;28;20039;-57
2021/05/14 10:07:48;;;;;;;4.80;3.15;;;;;;;;;;4987388;28;20027;-57
2021/05/14 10:10:15;;;;;;;5.93;3.40;;;;;;;;;;4988870;28;20030;-57
2021/05/14 10:12:41;;;;;;;8.90;3.97;;;;;;;;;;4988167;28;20030;-58
2021/05/14 10:15:09;;;;;;;9.15;3.50;;;;;;;;;;4992682;28;21955;-57
2021/05/14 10:17:36;;;;;;;8.15;3.83;;;;;;;;;;4995033;28;20046;-57
2021/05/14 10:20:05;;;;;;;5.25;3.17;;;;;;;;;;4986647;28;20039;-57
2021/05/14 10:22:33;;;;;;;8.27;2.70;;;;;;;;;;4982879;28;20038;-57
2021/05/14 10:25:00;;;;;;;8.27;3.53;;;;;;;;;;4984137;28;20165;-58
2021/05/14 10:27:30;;;;;;;7.80;3.22;;;;;;;;;;4993411;28;20035;-58
2021/05/14 10:29:57;;;;;;;6.22;3.30;;;;;;;;;;4984360;28;20033;-58
2021/05/14 10:32:42;;;;;;;6.25;2.92;;;;;;;;;;4991289;28;20062;-58
2021/05/14 10:35:08;;;;;;;10.90;3.42;;;;;;;;;;4989467;28;20015;-57
2021/05/14 10:37:51;;;;;;;10.05;3.67;;;;;;;;;;4989355;28;20049;-58
2021/05/14 10:40:17;;;;;;;;;;;;;;;;;;4984033;28;20062;-57
2021/05/14 10:42:44;;;;;;;8.68;2.85;;;;;;;;;;4983550;28;19964;-58
2021/05/14 10:45:30;;;;;;;5.47;2.38;;;;;;;;;;4979603;28;20027;-58
2021/05/14 10:47:56;;;;;;;9.90;3.03;;;;;;;;;;4984389;28;20038;-58
2021/05/14 10:50:33;;;;;;;7.65;2.50;;;;;;;;;;4988965;28;20023;-58
2021/05/14 10:53:17;;;;;;;6.32;2.80;;;;;;;;;;4991141;28;20022;-58
2021/05/14 10:55:47;;;;;;;5.38;2.33;;;;;;;;;;4992939;28;20023;-57
2021/05/14 10:58:32;;;;;;;6.43;3.13;;;;;;;;;;4981333;28;20111;-57
2021/05/14 11:00:58;;;;;;;5.80;2.67;;;;;;;;;;4990892;28;20073;-58
2021/05/14 11:03:31;;;;;;;6.05;2.65;;;;;;;;;;4990319;28;20029;-58
2021/05/14 11:06:10;;;;;;;6.38;3.17;;;;;;;;;;4991037;28;20022;-58
2021/05/14 11:08:36;;;;;;;6.00;2.63;;;;;;;;;;4991031;28;20022;-58
2021/05/14 11:11:10;;;;;;;8.13;3.08;;;;;;;;;;4990316;28;20434;-57
2021/05/14 11:13:53;;;;;;;9.18;3.40;;;;;;;;;;4992752;28;20109;-58
2021/05/14 11:16:31;;;;;;;10.00;3.15;;;;;;;;;;4992942;28;20462;-60
2021/05/14 11:18:58;;;;;;;4.85;2.70;;;;;;;;;;4981441;28;20046;-58
2021/05/14 11:21:42;;;;;;;5.65;3.22;;;;;;;;;;4979870;28;20023;-58
2021/05/14 11:24:09;;;;;;;20.00;3.63;;;;;;;;;;4990567;28;20077;-56
2021/05/14 11:26:35;;;;;;;10.40;3.10;;;;;;;;;;4998772;28;20077;-59
2021/05/14 11:29:01;;;;;;;7.95;2.95;;;;;;;;;;4976521;28;20037;-58
2021/05/14 11:31:27;;;;;;;6.38;3.00;;;;;;;;;;4998664;28;20549;-58
2021/05/14 11:33:55;;;;;;;7.55;2.80;;;;;;;;;;5002247;28;20027;-58
2021/05/14 11:36:24;;;;;;;7.28;2.80;;;;;;;;;;4978336;28;20027;-57
2021/05/14 11:38:56;;;;;;;8.02;3.60;;;;;;;;;;4985986;28;20060;-58
2021/05/14 11:41:29;;;;;;;7.93;2.78;;;;;;;;;;4979781;28;20433;-58
2021/05/14 11:44:00;;;;;;;7.53;3.00;;;;;;;;;;4988709;28;20096;-58
2021/05/14 11:46:27;;;;;;;6.05;2.55;;;;;;;;;;4984831;28;20521;-58
2021/05/14 11:48:54;;;;;;;5.05;2.67;;;;;;;;;;4984922;28;20064;-59
2021/05/14 11:51:20;;;;;;;10.85;2.97;;;;;;;;;;4987064;28;20095;-58
2021/05/14 11:53:47;;;;;;;7.43;2.92;;;;;;;;;;4982719;28;20022;-58
2021/05/14 11:56:13;;;;;;;6.05;2.42;;;;;;;;;;4983726;28;20026;-58
2021/05/14 11:58:40;;;;;;;5.32;2.80;;;;;;;;;;4995033;28;20046;-58
2021/05/14 12:01:07;;;;;;;8.27;3.20;;;;;;;;;;4981879;28;20189;-59
2021/05/14 12:03:33;;;;;;;8.95;2.50;;;;;;;;;;4984782;28;20146;-59
2021/05/14 12:06:06;;;;;;;7.85;3.33;;;;;;;;;;4984813;28;20038;-58
2021/05/14 12:08:33;;;;;;;6.40;2.60;;;;;;;;;;4978389;28;20104;-58
2021/05/14 12:11:03;;;;;;;6.85;2.85;;;;;;;;;;4984542;28;20135;-57
2021/05/14 12:13:50;;;;;;;6.28;3.30;;;;;;;;;;4982966;28;20089;-59
2021/05/14 12:16:17;;;;;;;13.18;3.65;;;;;;;;;;4981504;28;20038;-57
2021/05/14 12:18:50;;;;;;;7.82;3.55;;;;;;;;;;4983840;28;20105;-58
2021/05/14 12:21:23;;;;;;;10.32;2.97;;;;;;;;;;4981098;28;20036;-58
2021/05/14 12:23:49;;;;;;;6.95;3.00;;;;;;;;;;4985262;28;20030;-58
2021/05/14 12:26:16;;;;;;;6.10;2.75;;;;;;;;;;4997069;28;20493;-59
2021/05/14 12:28:45;;;;;;;9.20;2.63;;;;;;;;;;4984497;28;20031;-59
2021/05/14 12:31:27;;;;;;;7.03;2.83;;;;;;;;;;4971861;28;20893;-59
2021/05/14 12:33:56;;;;;;;6.05;3.13;;;;;;;;;;4984572;28;20121;-58
2021/05/14 12:36:25;;;;;;;6.18;2.88;;;;;;;;;;4985289;28;20033;-58
2021/05/14 12:38:51;;;;;;;8.07;3.17;;;;;;;;;;4982762;28;20041;-59
2021/05/14 12:41:28;;;;;;;8.15;2.80;;;;;;;;;;4981028;28;20030;-59
2021/05/14 12:44:07;;;;;;;4.95;2.50;;;;;;;;;;4983964;28;20034;-58
2021/05/14 12:46:34;;;;;;;5.32;2.88;;;;;;;;;;4984119;28;20034;-58
2021/05/14 12:49:10;;;;;;;6.25;3.35;;;;;;;;;;4987762;28;20402;-59
2021/05/14 12:51:37;;;;;;;7.63;2.97;;;;;;;;;;4969462;28;20026;-57
2021/05/14 12:54:03;;;;;;;5.95;2.95;;;;;;;;;;4990225;28;20030;-58
2021/05/14 12:56:29;;;;;;;8.10;3.13;;;;;;;;;;4985151;28;20027;-58
2021/05/14 12:58:58;;;;;;;7.15;3.28;;;;;;;;;;4987534;28;20077;-58
2021/05/14 13:01:25;;;;;;;5.63;2.83;;;;;;;;;;4985901;28;20023;-59
2021/05/14 13:03:51;;;;;;;9.00;3.55;;;;;;;;;;4981936;28;20072;-58
2021/05/14 13:06:17;;;;;;;7.25;3.92;;;;;;;;;;4986175;28;20030;-57
2021/05/14 13:08:43;;;;;;;10.90;4.20;;;;;;;;;;4983408;28;20034;-58
2021/05/14 13:11:13;;;;;;;8.40;3.80;;;;;;;;;;4984334;28;20038;-59
2021/05/14 13:13:39;;;;;;;9.57;4.47;;;;;;;;;;4980245;28;20019;-58
2021/05/14 13:16:06;;;;;;;7.75;4.65;;;;;;;;;;4983990;28;20077;-57
2021/05/14 13:18:39;;;;;;;5.35;3.65;;;;;;;;;;4983390;28;20022;-58
2021/05/14 13:21:06;;;;;;;5.82;3.45;;;;;;;;;;4984052;28;20104;-58
2021/05/14 13:23:32;;;;;;;8.98;3.80;;;;;;;;;;4986608;28;20045;-59
2021/05/14 13:25:58;;;;;;;6.63;3.60;;;;;;;;;;4987058;28;20121;-59
2021/05/14 13:28:25;;;;;;;11.00;4.05;;;;;;;;;;4988664;28;20462;-57
2021/05/14 13:30:51;;;;;;;5.65;3.40;;;;;;;;;;4987005;28;20117;-58
2021/05/14 13:33:17;;;;;;;5.13;3.58;;;;;;;;;;4984296;28;20027;-60
2021/05/14 13:35:44;;;;;;;8.15;3.53;;;;;;;;;;4982531;28;20037;-57
2021/05/14 13:38:10;;;;;;;6.22;3.50;;;;;;;;;;4961540;28;20035;-57
2021/05/14 13:40:37;;;;;;;9.18;4.03;;;;;;;;;;4989624;28;20864;-57
2021/05/14 13:43:04;;;;;;;7.75;4.55;;;;;;;;;;4985183;28;20062;-57
2021/05/14 13:45:30;;;;;;;7.97;4.65;;;;;;;;;;4993119;28;20026;-58
2021/05/14 13:47:58;;;;;;;11.05;5.03;;;;;;;;;;4989753;28;20026;-58
2021/05/14 13:50:24;;;;;;;7.63;4.78;;;;;;;;;;4988163;28;20031;-58
2021/05/14 13:52:50;;;;;;;10.35;4.97;;;;;;;;;;4988190;28;20023;-57
2021/05/14 13:55:17;;;;;;;8.05;4.53;;;;;;;;;;4992808;28;20124;-57
2021/05/14 13:57:43;;;;;;;7.63;4.45;;;;;;;;;;4990182;28;20022;-59
2021/05/14 14:00:09;;;;;;;5.53;3.42;;;;;;;;;;4991599;28;20031;-58
2021/05/14 14:02:35;;;;;;;13.68;5.55;;;;;;;;;;4982652;28;20054;-58
2021/05/14 14:05:02;;;;;;;9.98;4.30;;;;;;;;;;4985532;28;20019;-57
2021/05/14 14:07:28;;;;;;;8.50;4.30;;;;;;;;;;4989409;28;20035;-58
2021/05/14 14:09:54;;;;;;;4.78;2.45;;;;;;;;;;4989094;28;20035;-58
2021/05/14 14:12:20;;;;;;;6.43;2.10;;;;;;;;;;4990413;28;20366;-58
2021/05/14 14:14:46;;;;;;;10.50;2.75;;;;;;;;;;4989829;28;20076;-58
2021/05/14 14:17:13;;;;;;;5.35;2.00;;;;;;;;;;4990338;28;20015;-58
2021/05/14 14:19:39;;;;;;;4.88;2.42;;;;;;;;;;4990747;28;20141;-57
2021/05/14 14:22:05;;;;;;;5.28;2.33;;;;;;;;;;4991805;28;20027;-58
2021/05/14 14:24:31;;;;;;;4.05;2.00;;;;;;;;;;4991430;28;20125;-57
2021/05/14 14:26:57;;;;;;;5.03;2.40;;;;;;;;;;4992968;28;20034;-58
2021/05/14 14:29:24;;;;;;;6.88;2.35;;;;;;;;;;4991957;28;20045;-57
2021/05/14 14:31:51;;;;;;;4.32;2.35;;;;;;;;;;4986785;28;20037;-57
2021/05/14 14:34:17;;;;;;;5.35;2.70;;;;;;;;;;5000127;28;20023;-58
2021/05/14 14:36:43;;;;;;;7.85;2.92;;;;;;;;;;4990620;28;20037;-58
2021/05/14 14:39:09;;;;;;;5.50;2.72;;;;;;;;;;4993482;28;20035;-59
2021/05/14 14:41:35;;;;;;;6.15;2.70;;;;;;;;;;4988191;28;20034;-58
2021/05/14 14:44:04;;;;;;;4.53;2.75;;;;;;;;;;4990802;28;20517;-58